sensor_id;sensor_type;location;lat;lon;timestamp;pressure;altitude;pressure_sealevel;temperature;humidity
43701;BME280;58809;47.984;7.964;2023-03-25T00:01:49;96782.31;;;14.28;nan
43701;BME280;58809;47.984;7.964;2023-03-25T00:04:52;96792.22;;;14.14;nan
43701;BME280;58809;47.984;7.964;2023-03-25T00:07:54;96786.75;;;14.34;nan
43701;BME280;58809;47.984;7.964;2023-03-25T00:10:58;96799.69;;;14.30;nan
43701;BME280;58809;47.984;7.964;2023-03-25T00:14:00;96780.88;;;15.07;nan
43701;BME280;58809;47.984;7.964;2023-03-25T00:17:01;96784.84;;;15.78;nan
43701;BME280;58809;47.984;7.964;2023-03-25T00:20:07;96793.00;;;15.84;nan
43701;BME280;58809;47.984;7.964;2023-03-25T00:23:12;96777.53;;;16.34;nan
43701;BME280;58809;47.984;7.964;2023-03-25T00:26:13;96770.75;;;16.20;nan
43701;BME280;58809;47.984;7.964;2023-03-25T00:29:15;96778.53;;;16.22;nan
43701;BME280;58809;47.984;7.964;2023-03-25T00:32:17;96761.06;;;16.07;nan
43701;BME280;58809;47.984;7.964;2023-03-25T00:35:21;96745.63;;;15.97;nan
43701;BME280;58809;47.984;7.964;2023-03-25T00:38:25;96748.06;;;15.99;nan
43701;BME280;58809;47.984;7.964;2023-03-25T00:41:34;96738.06;;;15.94;nan
43701;BME280;58809;47.984;7.964;2023-03-25T00:44:37;96730.50;;;16.22;nan
43701;BME280;58809;47.984;7.964;2023-03-25T00:47:39;96728.84;;;16.21;nan
43701;BME280;58809;47.984;7.964;2023-03-25T00:50:41;96732.47;;;16.26;nan
43701;BME280;58809;47.984;7.964;2023-03-25T00:53:43;96741.06;;;16.28;nan
43701;BME280;58809;47.984;7.964;2023-03-25T00:56:45;96737.34;;;16.29;nan
43701;BME280;58809;47.984;7.964;2023-03-25T00:59:47;96726.88;;;16.16;nan
43701;BME280;58809;47.984;7.964;2023-03-25T01:02:49;96723.84;;;16.12;nan
43701;BME280;58809;47.984;7.964;2023-03-25T01:05:54;96741.75;;;15.93;nan
43701;BME280;58809;47.984;7.964;2023-03-25T01:08:57;96756.66;;;15.64;nan
43701;BME280;58809;47.984;7.964;2023-03-25T01:11:59;96737.19;;;15.82;nan
43701;BME280;58809;47.984;7.964;2023-03-25T01:15:00;96765.19;;;15.91;nan
43701;BME280;58809;47.984;7.964;2023-03-25T01:18:02;96769.78;;;15.84;nan
43701;BME280;58809;47.984;7.964;2023-03-25T01:21:05;96762.25;;;15.63;nan
43701;BME280;58809;47.984;7.964;2023-03-25T01:24:09;96753.34;;;15.87;nan
43701;BME280;58809;47.984;7.964;2023-03-25T01:27:11;96761.88;;;15.77;nan
43701;BME280;58809;47.984;7.964;2023-03-25T01:30:13;96763.72;;;15.58;nan
43701;BME280;58809;47.984;7.964;2023-03-25T01:33:15;96780.84;;;15.51;nan
43701;BME280;58809;47.984;7.964;2023-03-25T01:36:17;96776.69;;;15.55;nan
43701;BME280;58809;47.984;7.964;2023-03-25T01:39:18;96765.28;;;15.66;nan
43701;BME280;58809;47.984;7.964;2023-03-25T01:42:20;96762.25;;;15.81;nan
43701;BME280;58809;47.984;7.964;2023-03-25T01:45:25;96789.34;;;15.59;nan
43701;BME280;58809;47.984;7.964;2023-03-25T01:48:31;96777.09;;;15.77;nan
43701;BME280;58809;47.984;7.964;2023-03-25T01:51:38;96757.59;;;15.76;nan
43701;BME280;58809;47.984;7.964;2023-03-25T01:54:41;96764.75;;;15.94;nan
43701;BME280;58809;47.984;7.964;2023-03-25T01:57:43;96750.19;;;16.09;nan
43701;BME280;58809;47.984;7.964;2023-03-25T02:00:47;96742.09;;;15.85;nan
43701;BME280;58809;47.984;7.964;2023-03-25T02:03:51;96754.78;;;14.40;nan
43701;BME280;58809;47.984;7.964;2023-03-25T02:06:54;96728.09;;;13.90;nan
43701;BME280;58809;47.984;7.964;2023-03-25T02:09:59;96770.72;;;14.97;nan
43701;BME280;58809;47.984;7.964;2023-03-25T02:13:04;96799.34;;;15.27;nan
43701;BME280;58809;47.984;7.964;2023-03-25T02:25:34;96786.16;;;14.32;nan
43701;BME280;58809;47.984;7.964;2023-03-25T02:28:51;96782.34;;;14.21;nan
43701;BME280;58809;47.984;7.964;2023-03-25T02:32:23;96786.84;;;14.20;nan
43701;BME280;58809;47.984;7.964;2023-03-25T02:35:48;96789.13;;;14.17;nan
43701;BME280;58809;47.984;7.964;2023-03-25T02:39:16;96809.78;;;14.21;nan
43701;BME280;58809;47.984;7.964;2023-03-25T02:42:30;96819.63;;;14.53;nan
43701;BME280;58809;47.984;7.964;2023-03-25T02:45:38;96810.88;;;14.46;nan
43701;BME280;58809;47.984;7.964;2023-03-25T02:51:54;96816.94;;;14.59;nan
43701;BME280;58809;47.984;7.964;2023-03-25T02:54:59;96821.72;;;14.76;nan
43701;BME280;58809;47.984;7.964;2023-03-25T02:58:07;96806.66;;;14.63;nan
43701;BME280;58809;47.984;7.964;2023-03-25T03:01:10;96802.38;;;14.62;nan
43701;BME280;58809;47.984;7.964;2023-03-25T03:04:15;96798.69;;;14.88;nan
43701;BME280;58809;47.984;7.964;2023-03-25T03:07:29;96804.72;;;15.02;nan
43701;BME280;58809;47.984;7.964;2023-03-25T03:10:50;96814.91;;;15.30;nan
43701;BME280;58809;47.984;7.964;2023-03-25T03:17:18;96825.97;;;14.83;nan
43701;BME280;58809;47.984;7.964;2023-03-25T03:20:54;96835.44;;;15.05;nan
43701;BME280;58809;47.984;7.964;2023-03-25T03:27:44;96825.38;;;15.07;nan
43701;BME280;58809;47.984;7.964;2023-03-25T03:30:51;96826.47;;;14.99;nan
43701;BME280;58809;47.984;7.964;2023-03-25T03:34:19;96833.28;;;14.95;nan
43701;BME280;58809;47.984;7.964;2023-03-25T03:37:27;96837.00;;;15.12;nan
43701;BME280;58809;47.984;7.964;2023-03-25T03:40:30;96839.06;;;15.10;nan
43701;BME280;58809;47.984;7.964;2023-03-25T03:43:41;96840.38;;;15.01;nan
43701;BME280;58809;47.984;7.964;2023-03-25T03:46:53;96844.06;;;15.00;nan
43701;BME280;58809;47.984;7.964;2023-03-25T03:50:04;96843.22;;;15.06;nan
43701;BME280;58809;47.984;7.964;2023-03-25T03:53:14;96852.19;;;15.12;nan
43701;BME280;58809;47.984;7.964;2023-03-25T03:56:25;96847.00;;;14.92;nan
43701;BME280;58809;47.984;7.964;2023-03-25T03:59:50;96850.03;;;15.02;nan
43701;BME280;58809;47.984;7.964;2023-03-25T04:03:01;96837.75;;;15.19;nan
43701;BME280;58809;47.984;7.964;2023-03-25T04:06:34;96821.81;;;15.13;nan
43701;BME280;58809;47.984;7.964;2023-03-25T04:09:53;96828.66;;;15.27;nan
43701;BME280;58809;47.984;7.964;2023-03-25T04:12:59;96820.38;;;15.17;nan
43701;BME280;58809;47.984;7.964;2023-03-25T04:16:03;96837.72;;;15.26;nan
43701;BME280;58809;47.984;7.964;2023-03-25T04:19:05;96846.66;;;15.32;nan
43701;BME280;58809;47.984;7.964;2023-03-25T04:22:06;96832.81;;;15.23;nan
43701;BME280;58809;47.984;7.964;2023-03-25T04:25:08;96841.47;;;15.18;nan
43701;BME280;58809;47.984;7.964;2023-03-25T04:28:10;96835.25;;;15.25;nan
43701;BME280;58809;47.984;7.964;2023-03-25T04:31:15;96824.16;;;15.28;nan
43701;BME280;58809;47.984;7.964;2023-03-25T04:34:17;96845.59;;;15.14;nan
43701;BME280;58809;47.984;7.964;2023-03-25T04:37:20;96846.19;;;15.16;nan
43701;BME280;58809;47.984;7.964;2023-03-25T04:40:24;96846.34;;;15.21;nan
43701;BME280;58809;47.984;7.964;2023-03-25T04:43:26;96844.22;;;15.05;nan
43701;BME280;58809;47.984;7.964;2023-03-25T04:46:28;96849.47;;;15.18;nan
43701;BME280;58809;47.984;7.964;2023-03-25T04:49:30;96857.50;;;14.87;nan
43701;BME280;58809;47.984;7.964;2023-03-25T04:52:31;96853.28;;;14.72;nan
43701;BME280;58809;47.984;7.964;2023-03-25T04:55:33;96852.78;;;14.63;nan
43701;BME280;58809;47.984;7.964;2023-03-25T04:58:35;96848.44;;;14.24;nan
43701;BME280;58809;47.984;7.964;2023-03-25T05:01:38;96858.28;;;14.23;nan
43701;BME280;58809;47.984;7.964;2023-03-25T05:04:42;96866.53;;;12.57;nan
43701;BME280;58809;47.984;7.964;2023-03-25T05:07:51;96863.50;;;12.05;nan
43701;BME280;58809;47.984;7.964;2023-03-25T05:10:54;96881.03;;;11.99;nan
43701;BME280;58809;47.984;7.964;2023-03-25T05:13:55;96863.78;;;12.23;nan
43701;BME280;58809;47.984;7.964;2023-03-25T05:16:57;96861.53;;;12.27;nan
43701;BME280;58809;47.984;7.964;2023-03-25T05:20:00;96884.44;;;12.35;nan
43701;BME280;58809;47.984;7.964;2023-03-25T05:23:03;96884.75;;;12.11;nan
43701;BME280;58809;47.984;7.964;2023-03-25T05:26:04;96869.75;;;12.52;nan
43701;BME280;58809;47.984;7.964;2023-03-25T05:29:11;96870.88;;;12.16;nan
43701;BME280;58809;47.984;7.964;2023-03-25T05:32:14;96882.81;;;12.40;nan
43701;BME280;58809;47.984;7.964;2023-03-25T05:35:19;96845.47;;;12.62;nan
43701;BME280;58809;47.984;7.964;2023-03-25T05:38:21;96861.63;;;12.60;nan
43701;BME280;58809;47.984;7.964;2023-03-25T05:41:25;96854.09;;;12.77;nan
43701;BME280;58809;47.984;7.964;2023-03-25T05:44:33;96861.44;;;12.95;nan
43701;BME280;58809;47.984;7.964;2023-03-25T05:47:34;96850.41;;;12.71;nan
43701;BME280;58809;47.984;7.964;2023-03-25T05:50:36;96858.59;;;12.90;nan
43701;BME280;58809;47.984;7.964;2023-03-25T05:53:38;96852.47;;;12.89;nan
43701;BME280;58809;47.984;7.964;2023-03-25T05:56:40;96862.88;;;13.04;nan
43701;BME280;58809;47.984;7.964;2023-03-25T05:59:43;96845.69;;;12.87;nan
43701;BME280;58809;47.984;7.964;2023-03-25T06:02:46;96875.09;;;12.85;nan
43701;BME280;58809;47.984;7.964;2023-03-25T06:05:49;96859.59;;;12.89;nan
43701;BME280;58809;47.984;7.964;2023-03-25T06:08:51;96860.00;;;12.93;nan
43701;BME280;58809;47.984;7.964;2023-03-25T06:11:53;96854.09;;;12.97;nan
43701;BME280;58809;47.984;7.964;2023-03-25T06:14:54;96867.53;;;13.22;nan
43701;BME280;58809;47.984;7.964;2023-03-25T06:17:56;96865.31;;;13.33;nan
43701;BME280;58809;47.984;7.964;2023-03-25T06:20:58;96854.28;;;13.16;nan
43701;BME280;58809;47.984;7.964;2023-03-25T06:24:01;96835.88;;;13.14;nan
43701;BME280;58809;47.984;7.964;2023-03-25T06:27:04;96854.28;;;13.36;nan
43701;BME280;58809;47.984;7.964;2023-03-25T06:30:09;96852.97;;;13.72;nan
43701;BME280;58809;47.984;7.964;2023-03-25T06:33:12;96861.94;;;13.77;nan
43701;BME280;58809;47.984;7.964;2023-03-25T06:36:16;96854.00;;;13.71;nan
43701;BME280;58809;47.984;7.964;2023-03-25T06:39:20;96847.28;;;14.06;nan
43701;BME280;58809;47.984;7.964;2023-03-25T06:42:22;96843.97;;;13.79;nan
43701;BME280;58809;47.984;7.964;2023-03-25T06:45:37;96830.00;;;13.91;nan
43701;BME280;58809;47.984;7.964;2023-03-25T06:48:52;96835.63;;;14.08;nan
43701;BME280;58809;47.984;7.964;2023-03-25T06:51:53;96842.22;;;13.98;nan
43701;BME280;58809;47.984;7.964;2023-03-25T06:54:55;96873.16;;;13.93;nan
43701;BME280;58809;47.984;7.964;2023-03-25T06:57:56;96848.41;;;13.85;nan
43701;BME280;58809;47.984;7.964;2023-03-25T07:00:58;96838.00;;;13.84;nan
43701;BME280;58809;47.984;7.964;2023-03-25T07:04:04;96840.88;;;14.21;nan
43701;BME280;58809;47.984;7.964;2023-03-25T07:07:06;96836.44;;;14.15;nan
43701;BME280;58809;47.984;7.964;2023-03-25T07:10:11;96846.41;;;14.19;nan
43701;BME280;58809;47.984;7.964;2023-03-25T07:13:13;96836.28;;;14.41;nan
43701;BME280;58809;47.984;7.964;2023-03-25T07:16:14;96829.56;;;14.32;nan
43701;BME280;58809;47.984;7.964;2023-03-25T07:19:16;96846.66;;;14.18;nan
43701;BME280;58809;47.984;7.964;2023-03-25T07:22:17;96850.78;;;14.07;nan
43701;BME280;58809;47.984;7.964;2023-03-25T07:25:19;96836.06;;;14.43;nan
43701;BME280;58809;47.984;7.964;2023-03-25T07:28:20;96826.88;;;14.71;nan
43701;BME280;58809;47.984;7.964;2023-03-25T07:31:22;96835.00;;;14.82;nan
43701;BME280;58809;47.984;7.964;2023-03-25T07:34:23;96833.47;;;14.68;nan
43701;BME280;58809;47.984;7.964;2023-03-25T07:37:25;96830.66;;;14.56;nan
43701;BME280;58809;47.984;7.964;2023-03-25T07:40:27;96817.03;;;14.39;nan
43701;BME280;58809;47.984;7.964;2023-03-25T07:43:29;96858.91;;;14.19;nan
43701;BME280;58809;47.984;7.964;2023-03-25T07:46:56;96841.25;;;14.31;nan
43701;BME280;58809;47.984;7.964;2023-03-25T07:49:57;96846.75;;;14.36;nan
43701;BME280;58809;47.984;7.964;2023-03-25T07:52:59;96850.22;;;13.92;nan
43701;BME280;58809;47.984;7.964;2023-03-25T07:56:00;96853.03;;;13.45;nan
43701;BME280;58809;47.984;7.964;2023-03-25T07:59:03;96849.16;;;13.27;nan
43701;BME280;58809;47.984;7.964;2023-03-25T08:02:05;96839.78;;;13.32;nan
43701;BME280;58809;47.984;7.964;2023-03-25T08:05:07;96853.44;;;13.22;nan
43701;BME280;58809;47.984;7.964;2023-03-25T08:08:09;96849.22;;;13.86;nan
43701;BME280;58809;47.984;7.964;2023-03-25T08:11:10;96845.56;;;13.87;nan
43701;BME280;58809;47.984;7.964;2023-03-25T08:14:12;96838.00;;;13.84;nan
43701;BME280;58809;47.984;7.964;2023-03-25T08:17:14;96839.31;;;14.06;nan
43701;BME280;58809;47.984;7.964;2023-03-25T08:20:16;96870.94;;;14.28;nan
43701;BME280;58809;47.984;7.964;2023-03-25T08:23:18;96857.41;;;14.36;nan
43701;BME280;58809;47.984;7.964;2023-03-25T08:26:20;96847.78;;;14.35;nan
43701;BME280;58809;47.984;7.964;2023-03-25T08:29:22;96872.28;;;14.51;nan
43701;BME280;58809;47.984;7.964;2023-03-25T08:32:26;96860.50;;;14.65;nan
43701;BME280;58809;47.984;7.964;2023-03-25T08:35:28;96863.69;;;14.80;nan
43701;BME280;58809;47.984;7.964;2023-03-25T08:38:29;96865.28;;;15.13;nan
43701;BME280;58809;47.984;7.964;2023-03-25T08:41:34;96883.22;;;14.99;nan
43701;BME280;58809;47.984;7.964;2023-03-25T08:44:38;96874.81;;;15.02;nan
43701;BME280;58809;47.984;7.964;2023-03-25T08:47:40;96896.34;;;14.69;nan
43701;BME280;58809;47.984;7.964;2023-03-25T08:50:43;96869.75;;;14.56;nan
43701;BME280;58809;47.984;7.964;2023-03-25T08:53:44;96870.31;;;14.96;nan
43701;BME280;58809;47.984;7.964;2023-03-25T08:56:46;96863.47;;;15.07;nan
43701;BME280;58809;47.984;7.964;2023-03-25T08:59:47;96877.69;;;15.01;nan
43701;BME280;58809;47.984;7.964;2023-03-25T09:02:50;96855.34;;;15.02;nan
43701;BME280;58809;47.984;7.964;2023-03-25T09:05:52;96868.63;;;15.27;nan
43701;BME280;58809;47.984;7.964;2023-03-25T09:08:54;96878.31;;;15.47;nan
43701;BME280;58809;47.984;7.964;2023-03-25T09:11:56;96877.69;;;15.26;nan
43701;BME280;58809;47.984;7.964;2023-03-25T09:14:58;96871.38;;;15.20;nan
43701;BME280;58809;47.984;7.964;2023-03-25T09:17:59;96872.28;;;15.33;nan
43701;BME280;58809;47.984;7.964;2023-03-25T09:21:01;96876.72;;;15.20;nan
43701;BME280;58809;47.984;7.964;2023-03-25T09:24:03;96883.78;;;15.33;nan
43701;BME280;58809;47.984;7.964;2023-03-25T09:27:05;96868.84;;;15.26;nan
43701;BME280;58809;47.984;7.964;2023-03-25T09:30:08;96873.31;;;15.32;nan
43701;BME280;58809;47.984;7.964;2023-03-25T09:33:09;96870.91;;;15.24;nan
43701;BME280;58809;47.984;7.964;2023-03-25T09:36:12;96867.44;;;15.48;nan
43701;BME280;58809;47.984;7.964;2023-03-25T09:39:14;96875.56;;;15.35;nan
43701;BME280;58809;47.984;7.964;2023-03-25T09:45:41;96873.81;;;14.97;nan
43701;BME280;58809;47.984;7.964;2023-03-25T09:48:45;96899.34;;;14.79;nan
43701;BME280;58809;47.984;7.964;2023-03-25T09:51:50;96895.38;;;14.89;nan
43701;BME280;58809;47.984;7.964;2023-03-25T09:54:54;96907.75;;;15.08;nan
43701;BME280;58809;47.984;7.964;2023-03-25T09:58:24;96897.34;;;15.00;nan
43701;BME280;58809;47.984;7.964;2023-03-25T10:01:35;96913.94;;;14.77;nan
43701;BME280;58809;47.984;7.964;2023-03-25T10:04:45;96910.69;;;14.68;nan
43701;BME280;58809;47.984;7.964;2023-03-25T10:11:19;96917.72;;;15.19;nan
43701;BME280;58809;47.984;7.964;2023-03-25T10:14:39;96931.34;;;16.17;nan
43701;BME280;58809;47.984;7.964;2023-03-25T10:21:24;96911.72;;;17.68;nan
43701;BME280;58809;47.984;7.964;2023-03-25T10:24:41;96937.63;;;18.55;nan
43701;BME280;58809;47.984;7.964;2023-03-25T10:27:48;96920.94;;;18.94;nan
43701;BME280;58809;47.984;7.964;2023-03-25T10:30:52;96931.47;;;18.55;nan
43701;BME280;58809;47.984;7.964;2023-03-25T10:33:56;96919.97;;;18.71;nan
43701;BME280;58809;47.984;7.964;2023-03-25T10:37:01;96943.63;;;19.03;nan
43701;BME280;58809;47.984;7.964;2023-03-25T10:40:21;96933.78;;;18.92;nan
43701;BME280;58809;47.984;7.964;2023-03-25T10:43:28;96949.63;;;18.93;nan
43701;BME280;58809;47.984;7.964;2023-03-25T10:47:02;96935.56;;;18.57;nan
43701;BME280;58809;47.984;7.964;2023-03-25T10:50:13;96931.84;;;18.87;nan
43701;BME280;58809;47.984;7.964;2023-03-25T10:53:26;96928.75;;;18.95;nan
43701;BME280;58809;47.984;7.964;2023-03-25T10:56:32;96925.38;;;19.00;nan
43701;BME280;58809;47.984;7.964;2023-03-25T10:59:39;96925.38;;;19.34;nan
43701;BME280;58809;47.984;7.964;2023-03-25T11:02:45;96912.84;;;19.06;nan
43701;BME280;58809;47.984;7.964;2023-03-25T11:05:47;96915.63;;;19.11;nan
43701;BME280;58809;47.984;7.964;2023-03-25T11:09:21;96914.75;;;18.64;nan
43701;BME280;58809;47.984;7.964;2023-03-25T11:12:23;96921.84;;;18.42;nan
43701;BME280;58809;47.984;7.964;2023-03-25T11:15:38;96915.50;;;18.07;nan
43701;BME280;58809;47.984;7.964;2023-03-25T11:18:41;96923.56;;;18.07;nan
43701;BME280;58809;47.984;7.964;2023-03-25T11:21:46;96930.44;;;18.03;nan
43701;BME280;58809;47.984;7.964;2023-03-25T11:24:50;96925.59;;;18.29;nan
43701;BME280;58809;47.984;7.964;2023-03-25T11:28:00;96921.47;;;18.79;nan
43701;BME280;58809;47.984;7.964;2023-03-25T11:31:18;96917.69;;;18.92;nan
43701;BME280;58809;47.984;7.964;2023-03-25T11:34:21;96925.94;;;19.19;nan
43701;BME280;58809;47.984;7.964;2023-03-25T11:37:24;96924.41;;;19.57;nan
43701;BME280;58809;47.984;7.964;2023-03-25T11:40:31;96932.84;;;19.83;nan
43701;BME280;58809;47.984;7.964;2023-03-25T11:43:36;96922.94;;;20.05;nan
43701;BME280;58809;47.984;7.964;2023-03-25T11:46:41;96914.69;;;19.90;nan
43701;BME280;58809;47.984;7.964;2023-03-25T11:49:47;96896.19;;;19.03;nan
43701;BME280;58809;47.984;7.964;2023-03-25T11:52:55;96924.53;;;18.42;nan
43701;BME280;58809;47.984;7.964;2023-03-25T11:56:10;96923.56;;;18.07;nan
43701;BME280;58809;47.984;7.964;2023-03-25T11:59:24;96927.88;;;17.61;nan
43701;BME280;58809;47.984;7.964;2023-03-25T12:02:29;96918.81;;;17.39;nan
43701;BME280;58809;47.984;7.964;2023-03-25T12:05:37;96902.53;;;17.64;nan
43701;BME280;58809;47.984;7.964;2023-03-25T12:08:51;96902.41;;;17.94;nan
43701;BME280;58809;47.984;7.964;2023-03-25T12:12:05;96912.50;;;18.16;nan
43701;BME280;58809;47.984;7.964;2023-03-25T12:25:31;96898.59;;;19.56;nan
43701;BME280;58809;47.984;7.964;2023-03-25T12:35:02;96892.22;;;20.18;nan
43701;BME280;58809;47.984;7.964;2023-03-25T12:38:34;96923.88;;;20.60;nan
43701;BME280;58809;47.984;7.964;2023-03-25T12:41:52;96894.56;;;20.58;nan
43701;BME280;58809;47.984;7.964;2023-03-25T12:48:25;96879.72;;;20.29;nan
43701;BME280;58809;47.984;7.964;2023-03-25T12:59:02;96892.75;;;21.51;nan
43701;BME280;58809;47.984;7.964;2023-03-25T13:02:18;96882.81;;;22.04;nan
43701;BME280;58809;47.984;7.964;2023-03-25T13:05:31;96902.50;;;21.62;nan
43701;BME280;58809;47.984;7.964;2023-03-25T13:08:50;96881.13;;;21.45;nan
43701;BME280;58809;47.984;7.964;2023-03-25T13:12:24;96891.31;;;20.56;nan
43701;BME280;58809;47.984;7.964;2023-03-25T13:15:32;96882.88;;;20.21;nan
43701;BME280;58809;47.984;7.964;2023-03-25T13:18:52;96889.41;;;19.86;nan
43701;BME280;58809;47.984;7.964;2023-03-25T13:21:58;96891.97;;;19.24;nan
43701;BME280;58809;47.984;7.964;2023-03-25T13:25:04;96887.56;;;18.56;nan
43701;BME280;58809;47.984;7.964;2023-03-25T13:28:12;96899.47;;;18.07;nan
43701;BME280;58809;47.984;7.964;2023-03-25T13:31:20;96892.13;;;16.36;nan
43701;BME280;58809;47.984;7.964;2023-03-25T13:34:35;96905.63;;;16.04;nan
43701;BME280;58809;47.984;7.964;2023-03-25T13:37:45;96881.97;;;16.57;nan
43701;BME280;58809;47.984;7.964;2023-03-25T13:41:23;96909.00;;;16.79;nan
43701;BME280;58809;47.984;7.964;2023-03-25T13:44:29;96870.28;;;17.11;nan
43701;BME280;58809;47.984;7.964;2023-03-25T13:47:38;96898.03;;;16.99;nan
43701;BME280;58809;47.984;7.964;2023-03-25T13:50:43;96886.41;;;16.93;nan
43701;BME280;58809;47.984;7.964;2023-03-25T14:13:56;96922.13;;;18.98;nan
43701;BME280;58809;47.984;7.964;2023-03-25T14:17:03;96925.59;;;18.41;nan
43701;BME280;58809;47.984;7.964;2023-03-25T14:20:06;96911.94;;;18.42;nan
43701;BME280;58809;47.984;7.964;2023-03-25T14:23:18;96907.41;;;18.43;nan
43701;BME280;58809;47.984;7.964;2023-03-25T14:26:21;96904.22;;;18.17;nan
43701;BME280;58809;47.984;7.964;2023-03-25T14:29:39;96908.66;;;18.52;nan
43701;BME280;58809;47.984;7.964;2023-03-25T14:32:41;96912.06;;;19.05;nan
43701;BME280;58809;47.984;7.964;2023-03-25T14:35:46;96897.16;;;18.97;nan
43701;BME280;58809;47.984;7.964;2023-03-25T14:38:53;96897.34;;;19.08;nan
43701;BME280;58809;47.984;7.964;2023-03-25T14:49:08;96909.25;;;17.55;nan
43701;BME280;58809;47.984;7.964;2023-03-25T14:52:14;96889.25;;;17.81;nan
43701;BME280;58809;47.984;7.964;2023-03-25T14:55:26;96895.13;;;18.18;nan
43701;BME280;58809;47.984;7.964;2023-03-25T14:58:28;96891.91;;;18.45;nan
43701;BME280;58809;47.984;7.964;2023-03-25T15:01:33;96886.97;;;18.54;nan
43701;BME280;58809;47.984;7.964;2023-03-25T15:04:36;96879.28;;;18.57;nan
43701;BME280;58809;47.984;7.964;2023-03-25T15:08:50;96879.78;;;18.14;nan
43701;BME280;58809;47.984;7.964;2023-03-25T15:11:26;96881.66;;;18.01;nan
43701;BME280;58809;47.984;7.964;2023-03-25T15:14:37;96874.25;;;17.56;nan
43701;BME280;58809;47.984;7.964;2023-03-25T15:17:46;96871.69;;;17.38;nan
43701;BME280;58809;47.984;7.964;2023-03-25T15:20:49;96852.25;;;16.83;nan
43701;BME280;58809;47.984;7.964;2023-03-25T15:24:08;96857.94;;;16.57;nan
43701;BME280;58809;47.984;7.964;2023-03-25T15:54:50;96855.25;;;14.83;nan
43701;BME280;58809;47.984;7.964;2023-03-25T15:57:58;96856.66;;;14.93;nan
43701;BME280;58809;47.984;7.964;2023-03-25T16:01:25;96858.66;;;17.88;nan
43701;BME280;58809;47.984;7.964;2023-03-25T16:04:46;96864.50;;;23.05;nan
43701;BME280;58809;47.984;7.964;2023-03-25T16:07:48;96875.06;;;22.23;nan
43701;BME280;58809;47.984;7.964;2023-03-25T16:10:50;96855.69;;;20.17;nan
43701;BME280;58809;47.984;7.964;2023-03-25T16:14:04;96859.19;;;18.43;nan
43701;BME280;58809;47.984;7.964;2023-03-25T16:17:06;96849.59;;;17.19;nan
43701;BME280;58809;47.984;7.964;2023-03-25T16:20:13;96861.38;;;14.14;nan
43701;BME280;58809;47.984;7.964;2023-03-25T16:23:20;96863.63;;;13.52;nan
43701;BME280;58809;47.984;7.964;2023-03-25T16:26:35;96856.50;;;13.25;nan
43701;BME280;58809;47.984;7.964;2023-03-25T16:29:37;96862.22;;;13.22;nan
43701;BME280;58809;47.984;7.964;2023-03-25T16:32:39;96866.53;;;13.37;nan
43701;BME280;58809;47.984;7.964;2023-03-25T16:35:47;96869.78;;;13.45;nan
43701;BME280;58809;47.984;7.964;2023-03-25T16:38:50;96868.94;;;13.58;nan
43701;BME280;58809;47.984;7.964;2023-03-25T16:41:59;96858.31;;;13.58;nan
43701;BME280;58809;47.984;7.964;2023-03-25T16:45:01;96862.44;;;13.27;nan
43701;BME280;58809;47.984;7.964;2023-03-25T16:48:05;96864.50;;;13.05;nan
43701;BME280;58809;47.984;7.964;2023-03-25T16:51:14;96864.28;;;13.27;nan
43701;BME280;58809;47.984;7.964;2023-03-25T16:54:31;96864.59;;;14.29;nan
43701;BME280;58809;47.984;7.964;2023-03-25T16:57:37;96875.34;;;14.02;nan
43701;BME280;58809;47.984;7.964;2023-03-25T17:00:40;96855.31;;;14.00;nan
43701;BME280;58809;47.984;7.964;2023-03-25T17:03:46;96856.13;;;14.00;nan
43701;BME280;58809;47.984;7.964;2023-03-25T17:06:50;96854.25;;;14.08;nan
43701;BME280;58809;47.984;7.964;2023-03-25T17:09:54;96853.06;;;14.03;nan
43701;BME280;58809;47.984;7.964;2023-03-25T17:13:08;96849.19;;;13.99;nan
43701;BME280;58809;47.984;7.964;2023-03-25T17:16:10;96844.63;;;14.06;nan
43701;BME280;58809;47.984;7.964;2023-03-25T17:19:13;96832.06;;;14.91;nan
43701;BME280;58809;47.984;7.964;2023-03-25T17:22:27;96839.69;;;14.17;nan
43701;BME280;58809;47.984;7.964;2023-03-25T17:25:35;96850.84;;;14.32;nan
43701;BME280;58809;47.984;7.964;2023-03-25T17:28:39;96845.41;;;14.52;nan
43701;BME280;58809;47.984;7.964;2023-03-25T17:31:41;96842.53;;;14.54;nan
43701;BME280;58809;47.984;7.964;2023-03-25T17:34:43;96852.06;;;14.36;nan
43701;BME280;58809;47.984;7.964;2023-03-25T17:37:48;96857.25;;;14.24;nan
43701;BME280;58809;47.984;7.964;2023-03-25T17:41:00;96861.56;;;14.19;nan
43701;BME280;58809;47.984;7.964;2023-03-25T17:44:02;96867.97;;;14.11;nan
43701;BME280;58809;47.984;7.964;2023-03-25T17:47:05;96863.44;;;14.12;nan
43701;BME280;58809;47.984;7.964;2023-03-25T17:50:22;96861.84;;;14.04;nan
43701;BME280;58809;47.984;7.964;2023-03-25T17:53:25;96871.09;;;14.01;nan
43701;BME280;58809;47.984;7.964;2023-03-25T17:56:27;96867.16;;;14.04;nan
43701;BME280;58809;47.984;7.964;2023-03-25T17:59:29;96880.47;;;14.04;nan
43701;BME280;58809;47.984;7.964;2023-03-25T18:02:31;96873.50;;;14.10;nan
43701;BME280;58809;47.984;7.964;2023-03-25T18:05:32;96876.56;;;14.06;nan
43701;BME280;58809;47.984;7.964;2023-03-25T18:08:34;96879.88;;;14.02;nan
43701;BME280;58809;47.984;7.964;2023-03-25T18:11:36;96884.41;;;13.88;nan
43701;BME280;58809;47.984;7.964;2023-03-25T18:14:38;96889.75;;;13.81;nan
43701;BME280;58809;47.984;7.964;2023-03-25T18:17:39;96895.03;;;13.88;nan
43701;BME280;58809;47.984;7.964;2023-03-25T18:20:45;96885.69;;;13.72;nan
43701;BME280;58809;47.984;7.964;2023-03-25T18:23:46;96887.31;;;13.80;nan
43701;BME280;58809;47.984;7.964;2023-03-25T18:26:49;96873.81;;;13.75;nan
43701;BME280;58809;47.984;7.964;2023-03-25T18:29:51;96891.03;;;13.72;nan
43701;BME280;58809;47.984;7.964;2023-03-25T18:32:53;96891.38;;;13.82;nan
43701;BME280;58809;47.984;7.964;2023-03-25T18:35:54;96885.66;;;13.79;nan
43701;BME280;58809;47.984;7.964;2023-03-25T18:38:59;96893.88;;;13.71;nan
43701;BME280;58809;47.984;7.964;2023-03-25T18:42:00;96891.44;;;13.69;nan
43701;BME280;58809;47.984;7.964;2023-03-25T18:45:02;96886.09;;;13.69;nan
43701;BME280;58809;47.984;7.964;2023-03-25T18:48:04;96886.56;;;13.59;nan